Roald Amundsen — DARG — position and weather

sailwx.info

Track history (hours):
 
Tides and Currents Weather Stations Pressure Air Temp Water Temp Dewpoint Dewpoint Depression Visibility Wind Speed Wind Dir Waves Ship Positions

Roald Amundsen (Germany)

Built as a deep sea lugger in 1952. Converted and rigged as a traditional brig in 1992.

Ship's website: http://www.sailtraining.de/

Last reported at 2019-Oct-22 23:54 UTC. Time now 2019-Oct-23 00:13 UTC.
Position N 49°01' W 004°31'.

Length 50 m; beam 7.4 m; draft 4.5 m.

Type: Sailing vessel. MMSI: 211215170.

Date/timePositionNaut miles runAvg speedWind from/ knotsBaromVisibWave heightAir tempDewpointWater temp
2019-Oct-22 23:54N 49°01' W 004°31'3 6.6
2019-Oct-22 23:23N 49°03' W 004°28'3 6.6
2019-Oct-22 23:00N 49°05' W 004°25'4 6.7
2019-Oct-22 22:26N 49°08' W 004°22'3 6.9
2019-Oct-22 21:59N 49°11' W 004°19'3 6.8
2019-Oct-22 21:28N 49°14' W 004°16'3 7.0
2019-Oct-22 21:00N 49°16' W 004°13'4 7.1
2019-Oct-22 20:30N 49°19' W 004°10'4 7.3
2019-Oct-22 19:56N 49°22' W 004°05'3 7.4
2019-Oct-22 19:30N 49°25' W 004°02'4 7.5
2019-Oct-22 18:57N 49°28' W 003°58'4 7.6
2019-Oct-22 18:23N 49°31' W 003°54'3 7.6
2019-Oct-22 18:00N 49°33' W 003°51'4 7.6
2019-Oct-22 17:26N 49°37' W 003°47'3 7.4
2019-Oct-22 17:00N 49°39' W 003°44'4 7.3
2019-Oct-22 16:29N 49°42' W 003°41'3 7.1
2019-Oct-22 16:00N 49°45' W 003°38'3 6.9
2019-Oct-22 15:30N 49°48' W 003°35'3 6.7
2019-Oct-22 15:00N 49°51' W 003°32'3 6.3
2019-Oct-22 14:30N 49°53' W 003°28'3 6.2
2019-Oct-22 14:00N 49°55' W 003°24'3 6.2
2019-Oct-22 13:30N 49°56' W 003°20'3 6.1
2019-Oct-22 13:00N 49°58' W 003°16'2 4.5
2019-Oct-22 12:30N 49°60' W 003°14'3 5.8
2019-Oct-22 12:00N 50°01' W 003°10'3 6.1
2019-Oct-22 11:30N 50°03' W 003°06'3 6.4
2019-Oct-22 11:00N 50°05' W 003°02'3 6.8
2019-Oct-22 10:30N 50°07' W 002°58'3 7.1
2019-Oct-22 10:00N 50°09' W 002°53'2 3.2
2019-Oct-22 09:30N 50°09' W 002°51'1 1.0
2019-Oct-22 08:59N 50°09' W 002°50'1 1.8
2019-Oct-22 08:31N 50°09' W 002°49'19 2.3
2019-Oct-22 00:11N 50°19' W 002°23'12 3.0
2019-Oct-21 20:12N 50°22' W 002°05'3 5.8
2019-Oct-21 19:41N 50°23' W 002°01'1 5.7
2019-Oct-21 19:25N 50°23' W 001°59'27 6.0
2019-Oct-21 14:55N 50°30' W 001°17'1 3.4
2019-Oct-21 14:30N 50°31' W 001°15'2 3.3
2019-Oct-21 14:00N 50°32' W 001°13'2 3.2
2019-Oct-21 13:30N 50°33' W 001°11'1 3.0
2019-Oct-21 13:00N 50°34' W 001°10'2 3.0
2019-Oct-21 12:30N 50°36' W 001°09'2 3.7
2019-Oct-21 12:00N 50°37' W 001°07'2 4.7
2019-Oct-21 11:30N 50°39' W 001°05'2 4.0
2019-Oct-21 11:00N 50°41' W 001°03'2 3.3
2019-Oct-21 10:30N 50°42' W 001°03'3 6.9
2019-Oct-21 10:00N 50°45' W 001°05'2 4.6
2019-Oct-21 09:30N 50°48' W 001°07'0 0.0
2019-Oct-21 09:00N 50°48' W 001°07'0 0.0
2019-Oct-21 08:30N 50°48' W 001°07'0 0.0
2019-Oct-21 08:00N 50°48' W 001°07'0 0.0
2019-Oct-21 07:30N 50°48' W 001°07'0 0.0
2019-Oct-21 07:00N 50°48' W 001°07'0 0.0
2019-Oct-21 06:30N 50°48' W 001°07'0 0.0
2019-Oct-21 06:00N 50°48' W 001°07'0 0.0
2019-Oct-21 05:30N 50°48' W 001°07'0 0.0
2019-Oct-21 05:00N 50°48' W 001°07'0 0.0
2019-Oct-21 04:30N 50°48' W 001°07'0 0.0
2019-Oct-21 04:00N 50°48' W 001°07'0 0.0
2019-Oct-21 03:30N 50°48' W 001°07'0 0.0
2019-Oct-21 03:00N 50°48' W 001°07'0 0.0
2019-Oct-21 02:30N 50°48' W 001°07'0 0.0
2019-Oct-21 02:00N 50°48' W 001°07'0 0.0
2019-Oct-21 01:30N 50°48' W 001°07'0 0.0
2019-Oct-21 01:00N 50°48' W 001°07'0 0.0
2019-Oct-21 00:30N 50°48' W 001°07'0 0.0
2019-Oct-21 00:00N 50°48' W 001°07'0 0.0
2019-Oct-20 23:30N 50°48' W 001°07'0 0.0
2019-Oct-20 23:00N 50°48' W 001°07'0 0.0
2019-Oct-20 22:30N 50°48' W 001°07'0 0.0
2019-Oct-20 22:00N 50°48' W 001°07'0 0.0
2019-Oct-20 21:30N 50°48' W 001°07'0 0.0
2019-Oct-20 21:00N 50°48' W 001°07'0 0.0
2019-Oct-20 20:28N 50°48' W 001°07'0 0.0
2019-Oct-20 19:58N 50°48' W 001°07'0 0.0
2019-Oct-20 19:28N 50°48' W 001°07'0 0.0
2019-Oct-20 18:58N 50°48' W 001°07'0 0.0
2019-Oct-20 18:28N 50°48' W 001°07'0 0.0
2019-Oct-20 17:58N 50°48' W 001°07'0 0.0
2019-Oct-20 17:28N 50°48' W 001°07'0 0.0
2019-Oct-20 16:58N 50°48' W 001°07'0 0.0
2019-Oct-20 16:28N 50°48' W 001°07'0 0.0
2019-Oct-20 15:58N 50°48' W 001°07'0 0.0
2019-Oct-20 15:28N 50°48' W 001°07'0 0.0
2019-Oct-20 14:58N 50°48' W 001°07'0 0.0
2019-Oct-20 14:28N 50°48' W 001°07'0 0.0
2019-Oct-20 13:58N 50°48' W 001°07'0 0.0
2019-Oct-20 13:28N 50°48' W 001°07'0 0.0
2019-Oct-20 12:58N 50°48' W 001°07'0 0.0
2019-Oct-20 12:28N 50°48' W 001°07'0 0.0
2019-Oct-20 11:58N 50°48' W 001°07'0 0.0
2019-Oct-20 11:28N 50°48' W 001°07'0 0.0
2019-Oct-20 10:58N 50°48' W 001°07'0 0.0
2019-Oct-20 10:28N 50°48' W 001°07'0 0.0
2019-Oct-20 09:58N 50°48' W 001°07'0 0.0
2019-Oct-20 09:28N 50°48' W 001°07'0 0.0
2019-Oct-20 08:58N 50°48' W 001°07'0 0.0
2019-Oct-20 08:28N 50°48' W 001°07'0 0.0
2019-Oct-20 07:58N 50°48' W 001°07'0 0.0
2019-Oct-20 07:28N 50°48' W 001°07'0 0.0
2019-Oct-20 06:58N 50°48' W 001°07'0 0.0
2019-Oct-20 06:28N 50°48' W 001°07'0 0.0
2019-Oct-20 05:58N 50°48' W 001°07'0 0.0
2019-Oct-20 05:28N 50°48' W 001°07'0 0.0
2019-Oct-20 04:58N 50°48' W 001°07'0 0.0
2019-Oct-20 04:28N 50°48' W 001°07'0 0.0
2019-Oct-20 03:58N 50°48' W 001°07'0 0.0
2019-Oct-20 03:28N 50°48' W 001°07'0 0.0
2019-Oct-20 02:58N 50°48' W 001°07'0 0.0
2019-Oct-20 02:28N 50°48' W 001°07'0 0.0
2019-Oct-20 01:58N 50°48' W 001°07'0 0.0
2019-Oct-20 01:28N 50°48' W 001°07'0 0.0
2019-Oct-20 00:58N 50°48' W 001°07'0 0.0
2019-Oct-20 00:28N 50°48' W 001°07'0 0.0
2019-Oct-19 23:58N 50°48' W 001°07'0 0.0
2019-Oct-19 23:28N 50°48' W 001°07'0 0.0
2019-Oct-19 22:58N 50°48' W 001°07'0 0.0
2019-Oct-19 22:28N 50°48' W 001°07'0 0.0
2019-Oct-19 21:58N 50°48' W 001°07'0 0.0
2019-Oct-19 21:28N 50°48' W 001°07'0 0.0
2019-Oct-19 20:58N 50°48' W 001°07'0 0.0
2019-Oct-19 20:28N 50°48' W 001°07'0 0.0
2019-Oct-19 19:58N 50°48' W 001°07'0 0.0
2019-Oct-19 19:28N 50°48' W 001°07'0 0.0
2019-Oct-19 18:58N 50°48' W 001°07'0 0.0
2019-Oct-19 18:28N 50°48' W 001°07'0 0.0
2019-Oct-19 17:58N 50°48' W 001°07'0 0.0
2019-Oct-19 17:28N 50°48' W 001°07'0 0.0
2019-Oct-19 16:58N 50°48' W 001°07'0 0.0
2019-Oct-19 16:28N 50°48' W 001°07'0 0.0
2019-Oct-19 15:58N 50°48' W 001°07'0 0.0
2019-Oct-19 15:28N 50°48' W 001°07'0 0.0
2019-Oct-19 14:58N 50°48' W 001°07'0 0.0
2019-Oct-19 14:28N 50°48' W 001°07'0 0.0
2019-Oct-19 13:58N 50°48' W 001°07'0 0.0
2019-Oct-19 13:28N 50°48' W 001°07'0 0.0
2019-Oct-19 12:58N 50°48' W 001°07'0 0.0
2019-Oct-19 12:28N 50°48' W 001°07'0 0.0
2019-Oct-19 11:58N 50°48' W 001°07'0 0.0
2019-Oct-19 11:28N 50°48' W 001°07'0 0.0
2019-Oct-19 10:58N 50°48' W 001°07'0 0.0
2019-Oct-19 10:28N 50°48' W 001°07'0 0.0
2019-Oct-19 09:58N 50°48' W 001°07'0 0.0
2019-Oct-19 09:28N 50°48' W 001°07'0 0.0
2019-Oct-19 08:58N 50°48' W 001°07'0 0.0
2019-Oct-19 08:28N 50°48' W 001°07'0 0.0
2019-Oct-19 07:58N 50°48' W 001°07'0 0.0
2019-Oct-19 07:28N 50°48' W 001°07'0 0.0
2019-Oct-19 06:58N 50°48' W 001°07'0 0.0
2019-Oct-19 06:28N 50°48' W 001°07'0 0.0
2019-Oct-19 05:58N 50°48' W 001°07'0 0.0
2019-Oct-19 05:28N 50°48' W 001°07'0 0.0
2019-Oct-19 04:58N 50°48' W 001°07'0 0.0
2019-Oct-19 04:28N 50°48' W 001°07'0 0.0
2019-Oct-19 03:58N 50°48' W 001°07'0 0.0
2019-Oct-19 03:28N 50°48' W 001°07'0 0.0
2019-Oct-19 02:58N 50°48' W 001°07'0 0.0
2019-Oct-19 02:31N 50°48' W 001°07'0 0.0
2019-Oct-19 01:58N 50°48' W 001°07'0 0.0
2019-Oct-19 01:28N 50°48' W 001°07'0 0.0
2019-Oct-19 00:58N 50°48' W 001°07'0 0.0
2019-Oct-19 00:28N 50°48' W 001°07'0 0.0
2019-Oct-18 23:58N 50°48' W 001°07'0 0.0
2019-Oct-18 23:28N 50°48' W 001°07'0 0.0
2019-Oct-18 22:58N 50°48' W 001°07'0 0.0
2019-Oct-18 22:31N 50°48' W 001°07'0 0.0
2019-Oct-18 22:01N 50°48' W 001°07'0 0.0
2019-Oct-18 21:28N 50°48' W 001°07'0 0.0
2019-Oct-18 20:58N 50°48' W 001°07'0 0.0
2019-Oct-18 20:31N 50°48' W 001°07'0 0.0
2019-Oct-18 20:01N 50°48' W 001°07'0 0.0
2019-Oct-18 19:31N 50°48' W 001°07'0 0.0
2019-Oct-18 19:01N 50°48' W 001°07'0 0.0
2019-Oct-18 18:31N 50°48' W 001°07'0 0.0
2019-Oct-18 17:58N 50°48' W 001°07'0 0.0
2019-Oct-18 17:31N 50°48' W 001°07'0 0.0
2019-Oct-18 17:01N 50°48' W 001°07'0 0.0
2019-Oct-18 16:31N 50°48' W 001°07'0 0.0
2019-Oct-18 16:01N 50°48' W 001°07'0 0.0
2019-Oct-18 15:31N 50°48' W 001°07'0 0.0
2019-Oct-18 15:01N 50°48' W 001°07'0 0.0
2019-Oct-18 14:31N 50°48' W 001°07'0 0.0
2019-Oct-18 14:01N 50°48' W 001°07'0 0.0
2019-Oct-18 13:28N 50°48' W 001°07'0 0.0
2019-Oct-18 13:01N 50°48' W 001°07'0 0.0
2019-Oct-18 12:31N 50°48' W 001°07'0 0.0
2019-Oct-18 12:01N 50°48' W 001°07'0 0.0
2019-Oct-18 11:28N 50°48' W 001°07'0 0.0
2019-Oct-18 11:01N 50°48' W 001°07'0 0.0
2019-Oct-18 10:31N 50°48' W 001°07'0 0.0
2019-Oct-18 10:01N 50°48' W 001°07'0 0.0
2019-Oct-18 09:30N 50°48' W 001°07'0 0.1
2019-Oct-18 09:01N 50°48' W 001°07'3 5.2
2019-Oct-18 08:30N 50°45' W 001°05'2 4.8
2019-Oct-18 08:01N 50°44' W 001°02'1 1.8
2019-Oct-18 07:30N 50°43' W 001°03'0 0.0
2019-Oct-18 07:00N 50°43' W 001°03'0 0.0
2019-Oct-18 06:30N 50°43' W 001°03'0 0.0
2019-Oct-18 05:18N 50°43' W 001°03'0 0.0
2019-Oct-18 05:00N 50°43' W 001°03'0 0.0
2019-Oct-18 04:30N 50°43' W 001°03'0 0.1
2019-Oct-18 04:00N 50°43' W 001°03'0 0.1
2019-Oct-18 03:30N 50°43' W 001°03'0 0.0
2019-Oct-18 03:00N 50°43' W 001°03'0 0.0
2019-Oct-18 02:30N 50°43' W 001°03'0 0.0
2019-Oct-18 02:00N 50°43' W 001°03'0 0.1
2019-Oct-18 01:30N 50°43' W 001°03'1 2.5
2019-Oct-18 01:00N 50°43' W 001°01'2 4.6
2019-Oct-18 00:30N 50°42' W 000°58'3 6.5
2019-Oct-18 00:01N 50°38' W 000°59'2 4.2
2019-Oct-17 23:30N 50°37' W 000°56'2 3.5
2019-Oct-17 23:00N 50°36' W 000°53'1 2.7
2019-Oct-17 22:28N 50°36' W 000°51'2 2.1
2019-Oct-17 21:39N 50°35' W 000°49'1 1.2
2019-Oct-17 21:01N 50°35' W 000°48'0 0.9
2019-Oct-17 20:40N 50°35' W 000°47'41 2.5
2019-Oct-17 04:00N 50°35' E 000°17'3 6.9
2019-Oct-17 03:30N 50°36' E 000°22'3 6.4
2019-Oct-17 02:58N 50°37' E 000°27'3 5.6
2019-Oct-17 02:30N 50°38' E 000°31'3 5.5
2019-Oct-17 02:00N 50°39' E 000°35'3 6.1
2019-Oct-17 01:30N 50°41' E 000°39'3 5.9
2019-Oct-17 01:00N 50°43' E 000°43'3 5.1
2019-Oct-17 00:30N 50°44' E 000°47'2 4.6
2019-Oct-17 00:00N 50°45' E 000°50'2 5.0
2019-Oct-16 23:30N 50°46' E 000°53'2 4.8
2019-Oct-16 23:00N 50°48' E 000°56'2 4.9
2019-Oct-16 22:30N 50°49' E 000°59'3 5.6
2019-Oct-16 22:00N 50°51' E 001°02'3 6.4
2019-Oct-16 21:30N 50°53' E 001°06'4 7.2
2019-Oct-16 21:00N 50°56' E 001°11'4 7.5
2019-Oct-16 20:30N 50°58' E 001°15'4 8.1
2019-Oct-16 20:00N 51°00' E 001°21'4 8.4
2019-Oct-16 19:30N 51°03' E 001°26'4 8.2
2019-Oct-16 19:00N 51°05' E 001°31'4 7.4
2019-Oct-16 18:30N 51°08' E 001°35'3 6.7
2019-Oct-16 18:00N 51°10' E 001°39'3 5.9
2019-Oct-16 17:30N 51°12' E 001°42'3 5.5
2019-Oct-16 17:00N 51°15' E 001°45'3 5.3
2019-Oct-16 16:30N 51°17' E 001°46'2 4.4
2019-Oct-16 16:00N 51°19' E 001°48'2 3.3
2019-Oct-16 15:30N 51°21' E 001°49'1 2.2
2019-Oct-16 15:00N 51°22' E 001°50'1 1.3
2019-Oct-16 14:30N 51°22' E 001°50'0 0.9
2019-Oct-16 14:00N 51°23' E 001°50'0 0.8
2019-Oct-16 13:30N 51°23' E 001°50'1 1.2
2019-Oct-16 13:00N 51°24' E 001°50'1 1.6
2019-Oct-16 12:30N 51°24' E 001°50'1 1.8
2019-Oct-16 12:00N 51°25' E 001°50'1 1.9
2019-Oct-16 11:30N 51°26' E 001°50'1 2.0
2019-Oct-16 11:00N 51°27' E 001°50'1 2.3
2019-Oct-16 10:30N 51°28' E 001°50'2 3.1
2019-Oct-16 10:00N 51°30' E 001°50'2 4.4
2019-Oct-16 09:30N 51°32' E 001°52'3 6.0
2019-Oct-16 09:00N 51°34' E 001°55'62 4.5
2019-Oct-15 19:13N 52°09' E 003°18'3 5.5
2019-Oct-15 18:35N 52°12' E 003°22'1 5.4
2019-Oct-15 18:29N 52°12' E 003°23'2 5.2
2019-Oct-15 18:00N 52°13' E 003°26'3 4.9
2019-Oct-15 17:29N 52°15' E 003°29'2 4.8
2019-Oct-15 16:59N 52°17' E 003°32'2 4.3
2019-Oct-15 16:29N 52°19' E 003°32'2 4.0
2019-Oct-15 15:59N 52°21' E 003°32'2 3.8
2019-Oct-15 15:30N 52°23' E 003°32'2 3.4
2019-Oct-15 15:00N 52°24' E 003°31'2 3.3
2019-Oct-15 14:28N 52°26' E 003°31'1 2.9
2019-Oct-15 13:59N 52°28' E 003°32'1 2.8
2019-Oct-15 13:30N 52°29' E 003°32'1 1.0
2019-Oct-15 12:56N 52°29' E 003°32'1 1.7
2019-Oct-15 12:28N 52°30' E 003°31'14 3.6
2019-Oct-15 08:40N 52°43' E 003°26'3 4.7
2019-Oct-15 08:06N 52°46' E 003°24'11 3.4
2019-Oct-15 04:56N 52°53' E 003°11'1 3.3
2019-Oct-15 04:30N 52°51' E 003°12'16 3.1
2019-Oct-14 23:14N 52°48' E 003°38'1 4.1
2019-Oct-14 23:01N 52°48' E 003°39'3 5.2
2019-Oct-14 22:30N 52°50' E 003°42'3 4.3
2019-Oct-14 21:56N 52°52' E 003°45'32 4.8
2019-Oct-14 15:21N 53°13' E 004°24'2 4.9
2019-Oct-14 14:59N 53°15' E 004°25'126 4.4
2019-Oct-13 10:09N 54°02' E 007°41'1 6.0
2019-Oct-13 10:00N 54°02' E 007°43'3 5.8
2019-Oct-13 09:30N 54°02' E 007°48'3 5.9
2019-Oct-13 09:00N 54°02' E 007°53'3 5.8
2019-Oct-13 08:30N 54°02' E 007°58'3 5.6
2019-Oct-13 08:00N 54°02' E 008°02'3 5.4
2019-Oct-13 07:30N 54°01' E 008°07'3 5.5
2019-Oct-13 07:00N 54°01' E 008°12'3 6.1
2019-Oct-13 06:30N 54°01' E 008°17'3 6.9
2019-Oct-13 06:00N 53°60' E 008°22'4 8.1
2019-Oct-13 05:30N 53°59' E 008°29'5 9.1
2019-Oct-13 05:00N 53°58' E 008°37'5 9.9
2019-Oct-13 04:30N 53°54' E 008°42'5 9.8
2019-Oct-13 04:00N 53°51' E 008°48'5 9.8
2019-Oct-13 03:30N 53°51' E 008°56'4 8.9
2019-Oct-13 03:00N 53°52' E 009°03'3 6.2
2019-Oct-13 02:28N 53°53' E 009°09'0 0.1
2019-Oct-13 01:58N 53°53' E 009°09'0 0.0
2019-Oct-13 01:28N 53°53' E 009°09'0 0.0
2019-Oct-13 00:58N 53°53' E 009°09'0 0.0
2019-Oct-13 00:28N 53°53' E 009°09'  
Track history (hours):
 
Tides and Currents Weather Stations Pressure Air Temp Water Temp Dewpoint Dewpoint Depression Visibility Wind Speed Wind Dir Waves Ship Positions

Roald Amundsen (Germany)

Built as a deep sea lugger in 1952. Converted and rigged as a traditional brig in 1992.

Ship's website: http://www.sailtraining.de/

Last reported at 2019-Oct-22 23:54 UTC. Time now 2019-Oct-23 00:13 UTC.
Position N 49°01' W 004°31'.

Length 50 m; beam 7.4 m; draft 4.5 m.

Type: Sailing vessel. MMSI: 211215170.

Date/timePositionNaut miles runAvg speedWind from/ knotsBaromVisibWave heightAir tempDewpointWater temp
2019-Oct-22 23:54N 49°01' W 004°31'3 6.6
2019-Oct-22 23:23N 49°03' W 004°28'3 6.6
2019-Oct-22 23:00N 49°05' W 004°25'4 6.7
2019-Oct-22 22:26N 49°08' W 004°22'3 6.9
2019-Oct-22 21:59N 49°11' W 004°19'3 6.8
2019-Oct-22 21:28N 49°14' W 004°16'3 7.0
2019-Oct-22 21:00N 49°16' W 004°13'4 7.1
2019-Oct-22 20:30N 49°19' W 004°10'4 7.3
2019-Oct-22 19:56N 49°22' W 004°05'3 7.4
2019-Oct-22 19:30N 49°25' W 004°02'4 7.5
2019-Oct-22 18:57N 49°28' W 003°58'4 7.6
2019-Oct-22 18:23N 49°31' W 003°54'3 7.6
2019-Oct-22 18:00N 49°33' W 003°51'4 7.6
2019-Oct-22 17:26N 49°37' W 003°47'3 7.4
2019-Oct-22 17:00N 49°39' W 003°44'4 7.3
2019-Oct-22 16:29N 49°42' W 003°41'3 7.1
2019-Oct-22 16:00N 49°45' W 003°38'3 6.9
2019-Oct-22 15:30N 49°48' W 003°35'3 6.7
2019-Oct-22 15:00N 49°51' W 003°32'3 6.3
2019-Oct-22 14:30N 49°53' W 003°28'3 6.2
2019-Oct-22 14:00N 49°55' W 003°24'3 6.2
2019-Oct-22 13:30N 49°56' W 003°20'3 6.1
2019-Oct-22 13:00N 49°58' W 003°16'2 4.5
2019-Oct-22 12:30N 49°60' W 003°14'3 5.8
2019-Oct-22 12:00N 50°01' W 003°10'3 6.1
2019-Oct-22 11:30N 50°03' W 003°06'3 6.4
2019-Oct-22 11:00N 50°05' W 003°02'3 6.8
2019-Oct-22 10:30N 50°07' W 002°58'3 7.1
2019-Oct-22 10:00N 50°09' W 002°53'2 3.2
2019-Oct-22 09:30N 50°09' W 002°51'1 1.0
2019-Oct-22 08:59N 50°09' W 002°50'1 1.8
2019-Oct-22 08:31N 50°09' W 002°49'19 2.3
2019-Oct-22 00:11N 50°19' W 002°23'12 3.0
2019-Oct-21 20:12N 50°22' W 002°05'3 5.8
2019-Oct-21 19:41N 50°23' W 002°01'1 5.7
2019-Oct-21 19:25N 50°23' W 001°59'27 6.0
2019-Oct-21 14:55N 50°30' W 001°17'1 3.4
2019-Oct-21 14:30N 50°31' W 001°15'2 3.3
2019-Oct-21 14:00N 50°32' W 001°13'2 3.2
2019-Oct-21 13:30N 50°33' W 001°11'1 3.0
2019-Oct-21 13:00N 50°34' W 001°10'2 3.0
2019-Oct-21 12:30N 50°36' W 001°09'2 3.7
2019-Oct-21 12:00N 50°37' W 001°07'2 4.7
2019-Oct-21 11:30N 50°39' W 001°05'2 4.0
2019-Oct-21 11:00N 50°41' W 001°03'2 3.3
2019-Oct-21 10:30N 50°42' W 001°03'3 6.9
2019-Oct-21 10:00N 50°45' W 001°05'2 4.6
2019-Oct-21 09:30N 50°48' W 001°07'0 0.0
2019-Oct-21 09:00N 50°48' W 001°07'0 0.0
2019-Oct-21 08:30N 50°48' W 001°07'0 0.0
2019-Oct-21 08:00N 50°48' W 001°07'0 0.0
2019-Oct-21 07:30N 50°48' W 001°07'0 0.0
2019-Oct-21 07:00N 50°48' W 001°07'0 0.0
2019-Oct-21 06:30N 50°48' W 001°07'0 0.0
2019-Oct-21 06:00N 50°48' W 001°07'0 0.0
2019-Oct-21 05:30N 50°48' W 001°07'0 0.0
2019-Oct-21 05:00N 50°48' W 001°07'0 0.0
2019-Oct-21 04:30N 50°48' W 001°07'0 0.0
2019-Oct-21 04:00N 50°48' W 001°07'0 0.0
2019-Oct-21 03:30N 50°48' W 001°07'0 0.0
2019-Oct-21 03:00N 50°48' W 001°07'0 0.0
2019-Oct-21 02:30N 50°48' W 001°07'0 0.0
2019-Oct-21 02:00N 50°48' W 001°07'0 0.0
2019-Oct-21 01:30N 50°48' W 001°07'0 0.0
2019-Oct-21 01:00N 50°48' W 001°07'0 0.0
2019-Oct-21 00:30N 50°48' W 001°07'0 0.0
2019-Oct-21 00:00N 50°48' W 001°07'0 0.0
2019-Oct-20 23:30N 50°48' W 001°07'0 0.0
2019-Oct-20 23:00N 50°48' W 001°07'0 0.0
2019-Oct-20 22:30N 50°48' W 001°07'0 0.0
2019-Oct-20 22:00N 50°48' W 001°07'0 0.0
2019-Oct-20 21:30N 50°48' W 001°07'0 0.0
2019-Oct-20 21:00N 50°48' W 001°07'0 0.0
2019-Oct-20 20:28N 50°48' W 001°07'0 0.0
2019-Oct-20 19:58N 50°48' W 001°07'0 0.0
2019-Oct-20 19:28N 50°48' W 001°07'0 0.0
2019-Oct-20 18:58N 50°48' W 001°07'0 0.0
2019-Oct-20 18:28N 50°48' W 001°07'0 0.0
2019-Oct-20 17:58N 50°48' W 001°07'0 0.0
2019-Oct-20 17:28N 50°48' W 001°07'0 0.0
2019-Oct-20 16:58N 50°48' W 001°07'0 0.0
2019-Oct-20 16:28N 50°48' W 001°07'0 0.0
2019-Oct-20 15:58N 50°48' W 001°07'0 0.0
2019-Oct-20 15:28N 50°48' W 001°07'0 0.0
2019-Oct-20 14:58N 50°48' W 001°07'0 0.0
2019-Oct-20 14:28N 50°48' W 001°07'0 0.0
2019-Oct-20 13:58N 50°48' W 001°07'0 0.0
2019-Oct-20 13:28N 50°48' W 001°07'0 0.0
2019-Oct-20 12:58N 50°48' W 001°07'0 0.0
2019-Oct-20 12:28N 50°48' W 001°07'0 0.0
2019-Oct-20 11:58N 50°48' W 001°07'0 0.0
2019-Oct-20 11:28N 50°48' W 001°07'0 0.0
2019-Oct-20 10:58N 50°48' W 001°07'0 0.0
2019-Oct-20 10:28N 50°48' W 001°07'0 0.0
2019-Oct-20 09:58N 50°48' W 001°07'0 0.0
2019-Oct-20 09:28N 50°48' W 001°07'0 0.0
2019-Oct-20 08:58N 50°48' W 001°07'0 0.0
2019-Oct-20 08:28N 50°48' W 001°07'0 0.0
2019-Oct-20 07:58N 50°48' W 001°07'0 0.0
2019-Oct-20 07:28N 50°48' W 001°07'0 0.0
2019-Oct-20 06:58N 50°48' W 001°07'0 0.0
2019-Oct-20 06:28N 50°48' W 001°07'0 0.0
2019-Oct-20 05:58N 50°48' W 001°07'0 0.0
2019-Oct-20 05:28N 50°48' W 001°07'0 0.0
2019-Oct-20 04:58N 50°48' W 001°07'0 0.0
2019-Oct-20 04:28N 50°48' W 001°07'0 0.0
2019-Oct-20 03:58N 50°48' W 001°07'0 0.0
2019-Oct-20 03:28N 50°48' W 001°07'0 0.0
2019-Oct-20 02:58N 50°48' W 001°07'0 0.0
2019-Oct-20 02:28N 50°48' W 001°07'0 0.0
2019-Oct-20 01:58N 50°48' W 001°07'0 0.0
2019-Oct-20 01:28N 50°48' W 001°07'0 0.0
2019-Oct-20 00:58N 50°48' W 001°07'0 0.0
2019-Oct-20 00:28N 50°48' W 001°07'0 0.0
2019-Oct-19 23:58N 50°48' W 001°07'0 0.0
2019-Oct-19 23:28N 50°48' W 001°07'0 0.0
2019-Oct-19 22:58N 50°48' W 001°07'0 0.0
2019-Oct-19 22:28N 50°48' W 001°07'0 0.0
2019-Oct-19 21:58N 50°48' W 001°07'0 0.0
2019-Oct-19 21:28N 50°48' W 001°07'0 0.0
2019-Oct-19 20:58N 50°48' W 001°07'0 0.0
2019-Oct-19 20:28N 50°48' W 001°07'0 0.0
2019-Oct-19 19:58N 50°48' W 001°07'0 0.0
2019-Oct-19 19:28N 50°48' W 001°07'0 0.0
2019-Oct-19 18:58N 50°48' W 001°07'0 0.0
2019-Oct-19 18:28N 50°48' W 001°07'0 0.0
2019-Oct-19 17:58N 50°48' W 001°07'0 0.0
2019-Oct-19 17:28N 50°48' W 001°07'0 0.0
2019-Oct-19 16:58N 50°48' W 001°07'0 0.0
2019-Oct-19 16:28N 50°48' W 001°07'0 0.0
2019-Oct-19 15:58N 50°48' W 001°07'0 0.0
2019-Oct-19 15:28N 50°48' W 001°07'0 0.0
2019-Oct-19 14:58N 50°48' W 001°07'0 0.0
2019-Oct-19 14:28N 50°48' W 001°07'0 0.0
2019-Oct-19 13:58N 50°48' W 001°07'0 0.0
2019-Oct-19 13:28N 50°48' W 001°07'0 0.0
2019-Oct-19 12:58N 50°48' W 001°07'0 0.0
2019-Oct-19 12:28N 50°48' W 001°07'0 0.0
2019-Oct-19 11:58N 50°48' W 001°07'0 0.0
2019-Oct-19 11:28N 50°48' W 001°07'0 0.0
2019-Oct-19 10:58N 50°48' W 001°07'0 0.0
2019-Oct-19 10:28N 50°48' W 001°07'0 0.0
2019-Oct-19 09:58N 50°48' W 001°07'0 0.0
2019-Oct-19 09:28N 50°48' W 001°07'0 0.0
2019-Oct-19 08:58N 50°48' W 001°07'0 0.0
2019-Oct-19 08:28N 50°48' W 001°07'0 0.0
2019-Oct-19 07:58N 50°48' W 001°07'0 0.0
2019-Oct-19 07:28N 50°48' W 001°07'0 0.0
2019-Oct-19 06:58N 50°48' W 001°07'0 0.0
2019-Oct-19 06:28N 50°48' W 001°07'0 0.0
2019-Oct-19 05:58N 50°48' W 001°07'0 0.0
2019-Oct-19 05:28N 50°48' W 001°07'0 0.0
2019-Oct-19 04:58N 50°48' W 001°07'0 0.0
2019-Oct-19 04:28N 50°48' W 001°07'0 0.0
2019-Oct-19 03:58N 50°48' W 001°07'0 0.0
2019-Oct-19 03:28N 50°48' W 001°07'0 0.0
2019-Oct-19 02:58N 50°48' W 001°07'0 0.0
2019-Oct-19 02:31N 50°48' W 001°07'0 0.0
2019-Oct-19 01:58N 50°48' W 001°07'0 0.0
2019-Oct-19 01:28N 50°48' W 001°07'0 0.0
2019-Oct-19 00:58N 50°48' W 001°07'0 0.0
2019-Oct-19 00:28N 50°48' W 001°07'0 0.0
2019-Oct-18 23:58N 50°48' W 001°07'0 0.0
2019-Oct-18 23:28N 50°48' W 001°07'0 0.0
2019-Oct-18 22:58N 50°48' W 001°07'0 0.0
2019-Oct-18 22:31N 50°48' W 001°07'0 0.0
2019-Oct-18 22:01N 50°48' W 001°07'0 0.0
2019-Oct-18 21:28N 50°48' W 001°07'0 0.0
2019-Oct-18 20:58N 50°48' W 001°07'0 0.0
2019-Oct-18 20:31N 50°48' W 001°07'0 0.0
2019-Oct-18 20:01N 50°48' W 001°07'0 0.0
2019-Oct-18 19:31N 50°48' W 001°07'0 0.0
2019-Oct-18 19:01N 50°48' W 001°07'0 0.0
2019-Oct-18 18:31N 50°48' W 001°07'0 0.0
2019-Oct-18 17:58N 50°48' W 001°07'0 0.0
2019-Oct-18 17:31N 50°48' W 001°07'0 0.0
2019-Oct-18 17:01N 50°48' W 001°07'0 0.0
2019-Oct-18 16:31N 50°48' W 001°07'0 0.0
2019-Oct-18 16:01N 50°48' W 001°07'0 0.0
2019-Oct-18 15:31N 50°48' W 001°07'0 0.0
2019-Oct-18 15:01N 50°48' W 001°07'0 0.0
2019-Oct-18 14:31N 50°48' W 001°07'0 0.0
2019-Oct-18 14:01N 50°48' W 001°07'0 0.0
2019-Oct-18 13:28N 50°48' W 001°07'0 0.0
2019-Oct-18 13:01N 50°48' W 001°07'0 0.0
2019-Oct-18 12:31N 50°48' W 001°07'0 0.0
2019-Oct-18 12:01N 50°48' W 001°07'0 0.0
2019-Oct-18 11:28N 50°48' W 001°07'0 0.0
2019-Oct-18 11:01N 50°48' W 001°07'0 0.0
2019-Oct-18 10:31N 50°48' W 001°07'0 0.0
2019-Oct-18 10:01N 50°48' W 001°07'0 0.0
2019-Oct-18 09:30N 50°48' W 001°07'0 0.1
2019-Oct-18 09:01N 50°48' W 001°07'3 5.2
2019-Oct-18 08:30N 50°45' W 001°05'2 4.8
2019-Oct-18 08:01N 50°44' W 001°02'1 1.8
2019-Oct-18 07:30N 50°43' W 001°03'0 0.0
2019-Oct-18 07:00N 50°43' W 001°03'0 0.0
2019-Oct-18 06:30N 50°43' W 001°03'0 0.0
2019-Oct-18 05:18N 50°43' W 001°03'0 0.0
2019-Oct-18 05:00N 50°43' W 001°03'0 0.0
2019-Oct-18 04:30N 50°43' W 001°03'0 0.1
2019-Oct-18 04:00N 50°43' W 001°03'0 0.1
2019-Oct-18 03:30N 50°43' W 001°03'0 0.0
2019-Oct-18 03:00N 50°43' W 001°03'0 0.0
2019-Oct-18 02:30N 50°43' W 001°03'0 0.0
2019-Oct-18 02:00N 50°43' W 001°03'0 0.1
2019-Oct-18 01:30N 50°43' W 001°03'1 2.5
2019-Oct-18 01:00N 50°43' W 001°01'2 4.6
2019-Oct-18 00:30N 50°42' W 000°58'3 6.5
2019-Oct-18 00:01N 50°38' W 000°59'2 4.2
2019-Oct-17 23:30N 50°37' W 000°56'2 3.5
2019-Oct-17 23:00N 50°36' W 000°53'1 2.7
2019-Oct-17 22:28N 50°36' W 000°51'2 2.1
2019-Oct-17 21:39N 50°35' W 000°49'1 1.2
2019-Oct-17 21:01N 50°35' W 000°48'0 0.9
2019-Oct-17 20:40N 50°35' W 000°47'41 2.5
2019-Oct-17 04:00N 50°35' E 000°17'3 6.9
2019-Oct-17 03:30N 50°36' E 000°22'3 6.4
2019-Oct-17 02:58N 50°37' E 000°27'3 5.6
2019-Oct-17 02:30N 50°38' E 000°31'3 5.5
2019-Oct-17 02:00N 50°39' E 000°35'3 6.1
2019-Oct-17 01:30N 50°41' E 000°39'3 5.9
2019-Oct-17 01:00N 50°43' E 000°43'3 5.1
2019-Oct-17 00:30N 50°44' E 000°47'2 4.6
2019-Oct-17 00:00N 50°45' E 000°50'2 5.0
2019-Oct-16 23:30N 50°46' E 000°53'2 4.8
2019-Oct-16 23:00N 50°48' E 000°56'2 4.9
2019-Oct-16 22:30N 50°49' E 000°59'3 5.6
2019-Oct-16 22:00N 50°51' E 001°02'3 6.4
2019-Oct-16 21:30N 50°53' E 001°06'4 7.2
2019-Oct-16 21:00N 50°56' E 001°11'4 7.5
2019-Oct-16 20:30N 50°58' E 001°15'4 8.1
2019-Oct-16 20:00N 51°00' E 001°21'4 8.4
2019-Oct-16 19:30N 51°03' E 001°26'4 8.2
2019-Oct-16 19:00N 51°05' E 001°31'4 7.4
2019-Oct-16 18:30N 51°08' E 001°35'3 6.7
2019-Oct-16 18:00N 51°10' E 001°39'3 5.9
2019-Oct-16 17:30N 51°12' E 001°42'3 5.5
2019-Oct-16 17:00N 51°15' E 001°45'3 5.3
2019-Oct-16 16:30N 51°17' E 001°46'2 4.4
2019-Oct-16 16:00N 51°19' E 001°48'2 3.3
2019-Oct-16 15:30N 51°21' E 001°49'1 2.2
2019-Oct-16 15:00N 51°22' E 001°50'1 1.3
2019-Oct-16 14:30N 51°22' E 001°50'0 0.9
2019-Oct-16 14:00N 51°23' E 001°50'0 0.8
2019-Oct-16 13:30N 51°23' E 001°50'1 1.2
2019-Oct-16 13:00N 51°24' E 001°50'1 1.6
2019-Oct-16 12:30N 51°24' E 001°50'1 1.8
2019-Oct-16 12:00N 51°25' E 001°50'1 1.9
2019-Oct-16 11:30N 51°26' E 001°50'1 2.0
2019-Oct-16 11:00N 51°27' E 001°50'1 2.3
2019-Oct-16 10:30N 51°28' E 001°50'2 3.1
2019-Oct-16 10:00N 51°30' E 001°50'2 4.4
2019-Oct-16 09:30N 51°32' E 001°52'3 6.0
2019-Oct-16 09:00N 51°34' E 001°55'62 4.5
2019-Oct-15 19:13N 52°09' E 003°18'3 5.5
2019-Oct-15 18:35N 52°12' E 003°22'1 5.4
2019-Oct-15 18:29N 52°12' E 003°23'2 5.2
2019-Oct-15 18:00N 52°13' E 003°26'3 4.9
2019-Oct-15 17:29N 52°15' E 003°29'2 4.8
2019-Oct-15 16:59N 52°17' E 003°32'2 4.3
2019-Oct-15 16:29N 52°19' E 003°32'2 4.0
2019-Oct-15 15:59N 52°21' E 003°32'2 3.8
2019-Oct-15 15:30N 52°23' E 003°32'2 3.4
2019-Oct-15 15:00N 52°24' E 003°31'2 3.3
2019-Oct-15 14:28N 52°26' E 003°31'1 2.9
2019-Oct-15 13:59N 52°28' E 003°32'1 2.8
2019-Oct-15 13:30N 52°29' E 003°32'1 1.0
2019-Oct-15 12:56N 52°29' E 003°32'1 1.7
2019-Oct-15 12:28N 52°30' E 003°31'14 3.6
2019-Oct-15 08:40N 52°43' E 003°26'3 4.7
2019-Oct-15 08:06N 52°46' E 003°24'11 3.4
2019-Oct-15 04:56N 52°53' E 003°11'1 3.3
2019-Oct-15 04:30N 52°51' E 003°12'16 3.1
2019-Oct-14 23:14N 52°48' E 003°38'1 4.1
2019-Oct-14 23:01N 52°48' E 003°39'3 5.2
2019-Oct-14 22:30N 52°50' E 003°42'3 4.3
2019-Oct-14 21:56N 52°52' E 003°45'32 4.8
2019-Oct-14 15:21N 53°13' E 004°24'2 4.9
2019-Oct-14 14:59N 53°15' E 004°25'126 4.4
2019-Oct-13 10:09N 54°02' E 007°41'1 6.0
2019-Oct-13 10:00N 54°02' E 007°43'3 5.8
2019-Oct-13 09:30N 54°02' E 007°48'3 5.9
2019-Oct-13 09:00N 54°02' E 007°53'3 5.8
2019-Oct-13 08:30N 54°02' E 007°58'3 5.6
2019-Oct-13 08:00N 54°02' E 008°02'3 5.4
2019-Oct-13 07:30N 54°01' E 008°07'3 5.5
2019-Oct-13 07:00N 54°01' E 008°12'3 6.1
2019-Oct-13 06:30N 54°01' E 008°17'3 6.9
2019-Oct-13 06:00N 53°60' E 008°22'4 8.1
2019-Oct-13 05:30N 53°59' E 008°29'5 9.1
2019-Oct-13 05:00N 53°58' E 008°37'5 9.9
2019-Oct-13 04:30N 53°54' E 008°42'5 9.8
2019-Oct-13 04:00N 53°51' E 008°48'5 9.8
2019-Oct-13 03:30N 53°51' E 008°56'4 8.9
2019-Oct-13 03:00N 53°52' E 009°03'3 6.2
2019-Oct-13 02:28N 53°53' E 009°09'0 0.1
2019-Oct-13 01:58N 53°53' E 009°09'0 0.0
2019-Oct-13 01:28N 53°53' E 009°09'0 0.0
2019-Oct-13 00:58N 53°53' E 009°09'0 0.0
2019-Oct-13 00:28N 53°53' E 009°09'  

Dump ship's entire track history